Time;durP1;ratioP1;P1;durP2;ratioP2;P2;SDS_P1;SDS_P2;PMS_P1;PMS_P2;Temp;Humidity;BMP_temperature;BMP_pressure;BME280_temperature;BME280_humidity;BME280_pressure;Samples;Min_cycle;Max_cycle;Signal;HPM_P1;HPM_P2
2024/05/01 00:03:14;;;;;;;5.35;4.90;;;18.10;91.50;;;;;;7457370;26;20272;-78
2024/05/01 00:06:37;;;;;;;6.05;5.55;;;18.10;92.20;;;;;;7463317;26;20921;-79
2024/05/01 00:10:00;;;;;;;5.80;5.30;;;18.00;93.30;;;;;;7467339;26;20276;-77
2024/05/01 00:13:22;;;;;;;5.00;4.70;;;18.00;93.60;;;;;;7465055;26;20234;-77
2024/05/01 00:16:45;;;;;;;5.97;5.38;;;18.00;94.40;;;;;;7466547;26;20253;-78
2024/05/01 00:20:12;;;;;;;5.43;4.93;;;17.90;95.30;;;;;;7464631;26;20277;-78
2024/05/01 00:23:36;;;;;;;11.50;6.20;;;17.80;96.20;;;;;;7454661;26;20689;-76
2024/05/01 00:26:59;;;;;;;5.85;5.25;;;17.70;97.40;;;;;;7471309;26;20233;-75
2024/05/01 00:30:19;;;;;;;6.50;5.88;;;17.70;98.30;;;;;;7469085;26;20227;-77
2024/05/01 00:33:44;;;;;;;6.40;5.80;;;17.70;99.10;;;;;;7468942;26;21113;-77
2024/05/01 00:37:07;;;;;;;10.23;5.45;;;17.60;99.80;;;;;;7469572;26;20234;-81
2024/05/01 00:40:30;;;;;;;6.68;6.00;;;17.60;99.90;;;;;;7468539;26;20790;-77
2024/05/01 00:43:53;;;;;;;6.20;5.55;;;17.60;99.90;;;;;;7465738;26;20229;-75
2024/05/01 00:47:15;;;;;;;6.82;5.72;;;17.60;99.90;;;;;;7470645;26;20610;-78
2024/05/01 00:50:39;;;;;;;8.15;5.45;;;17.60;99.90;;;;;;7469868;26;20227;-77
2024/05/01 00:54:04;;;;;;;6.68;5.32;;;17.50;99.90;;;;;;7464909;26;20273;-76
2024/05/01 00:57:28;;;;;;;6.55;6.05;;;17.50;99.90;;;;;;7466497;26;20229;-78
2024/05/01 01:00:49;;;;;;;5.82;5.13;;;17.50;99.90;;;;;;7458308;26;20233;-78
2024/05/01 01:04:12;;;;;;;7.55;5.93;;;17.40;99.90;;;;;;7469081;26;20238;-77
2024/05/01 01:07:35;;;;;;;9.55;5.32;;;17.40;99.90;;;;;;7464979;26;20333;-76
2024/05/01 01:11:08;;;;;;;7.07;6.32;;;17.40;99.90;;;;;;7482929;26;20233;-76
2024/05/01 01:14:31;;;;;;;9.50;7.00;;;17.30;99.90;;;;;;7468886;26;20654;-75
2024/05/01 01:17:52;;;;;;;8.27;6.30;;;17.20;99.90;;;;;;7464521;26;20230;-77
2024/05/01 01:21:15;;;;;;;7.53;6.72;;;17.10;99.90;;;;;;7462585;26;20235;-78
2024/05/01 01:24:41;;;;;;;5.50;5.20;;;17.20;99.90;;;;;;7466239;26;20940;-75
2024/05/01 01:28:04;;;;;;;5.95;5.43;;;17.10;99.90;;;;;;7458818;26;20233;-80
2024/05/01 01:31:24;;;;;;;6.38;5.88;;;17.10;99.90;;;;;;7466884;26;20767;-76
2024/05/01 01:34:48;;;;;;;5.70;5.13;;;17.10;99.90;;;;;;7471357;26;20256;-74
2024/05/01 01:38:11;;;;;;;5.10;4.72;;;17.10;99.90;;;;;;7456527;26;20234;-76
2024/05/01 01:41:36;;;;;;;5.93;5.50;;;17.20;99.90;;;;;;7457039;26;20269;-76
2024/05/01 01:44:56;;;;;;;6.93;4.97;;;17.30;99.90;;;;;;7459059;26;20285;-78
2024/05/01 01:48:19;;;;;;;6.88;5.38;;;17.50;99.90;;;;;;7465650;26;20265;-77
2024/05/01 01:51:40;;;;;;;6.32;5.70;;;17.40;99.90;;;;;;7466058;26;20236;-77
2024/05/01 01:55:02;;;;;;;7.68;5.47;;;17.60;99.90;;;;;;7465011;26;20277;-76
2024/05/01 01:58:28;;;;;;;5.80;5.30;;;17.40;99.90;;;;;;7458672;26;20234;-78
2024/05/01 02:01:51;;;;;;;5.18;4.78;;;17.30;99.90;;;;;;7454966;26;20268;-78
2024/05/01 02:05:14;;;;;;;6.20;5.60;;;16.90;99.90;;;;;;7462627;26;20291;-76
2024/05/01 02:08:35;;;;;;;5.32;4.78;;;17.00;99.90;;;;;;7463160;26;20713;-77
2024/05/01 02:11:57;;;;;;;8.75;5.20;;;16.80;99.90;;;;;;7466056;26;20568;-76
2024/05/01 02:15:23;;;;;;;5.93;5.43;;;16.90;99.90;;;;;;7449680;26;20225;-78
2024/05/01 02:18:45;;;;;;;5.78;4.63;;;16.90;99.90;;;;;;7467216;26;20234;-76
2024/05/01 02:22:09;;;;;;;6.05;5.60;;;17.00;99.90;;;;;;7459113;26;20229;-77
2024/05/01 02:25:29;;;;;;;8.02;5.65;;;17.10;99.90;;;;;;7464431;26;20229;-79
2024/05/01 02:28:53;;;;;;;9.48;5.82;;;17.10;99.90;;;;;;7469788;26;20272;-77
2024/05/01 02:32:18;;;;;;;6.50;5.35;;;17.20;99.90;;;;;;7454930;26;20771;-77
2024/05/01 02:35:41;;;;;;;5.85;5.28;;;17.20;99.90;;;;;;7467464;26;20607;-76
2024/05/01 02:39:04;;;;;;;7.40;4.97;;;17.00;99.90;;;;;;7457268;26;20727;-79
2024/05/01 02:42:27;;;;;;;6.60;5.30;;;17.10;99.90;;;;;;7451595;26;20238;-77
2024/05/01 02:45:50;;;;;;;7.20;5.07;;;17.10;99.90;;;;;;7468842;26;20233;-78
2024/05/01 02:49:16;;;;;;;6.43;5.63;;;16.90;99.90;;;;;;7461389;26;20242;-77
2024/05/01 02:52:40;;;;;;;5.57;5.03;;;16.90;99.90;;;;;;7464988;26;20234;-78
2024/05/01 02:56:03;;;;;;;5.15;4.75;;;16.90;99.90;;;;;;7466615;26;20387;-75
2024/05/01 02:59:26;;;;;;;5.40;4.93;;;16.80;99.90;;;;;;7456139;26;20229;-77
2024/05/01 03:02:46;;;;;;;6.30;5.57;;;16.50;99.90;;;;;;7462644;26;20292;-75
2024/05/01 03:06:12;;;;;;;5.28;4.80;;;16.60;99.90;;;;;;7474128;26;20689;-76
2024/05/01 03:09:35;;;;;;;6.55;5.95;;;16.70;99.90;;;;;;7474877;26;20305;-77
2024/05/01 03:12:58;;;;;;;5.97;5.45;;;16.80;99.90;;;;;;7461610;26;20233;-75
2024/05/01 03:16:21;;;;;;;6.57;5.85;;;16.70;99.90;;;;;;7462877;26;20242;-75
2024/05/01 03:19:41;;;;;;;5.82;5.43;;;16.60;99.90;;;;;;7461502;26;20234;-78
2024/05/01 03:23:07;;;;;;;6.03;5.63;;;16.30;99.90;;;;;;7453429;26;20273;-75
2024/05/01 03:26:30;;;;;;;5.63;5.13;;;16.20;99.90;;;;;;7464159;26;20276;-76
2024/05/01 03:29:53;;;;;;;6.30;5.78;;;16.20;99.90;;;;;;7464201;26;20580;-75
2024/05/01 03:33:16;;;;;;;6.95;6.35;;;16.00;99.90;;;;;;7467141;26;20329;-75
2024/05/01 03:36:39;;;;;;;6.45;5.65;;;16.10;99.90;;;;;;7458529;26;20335;-75
2024/05/01 03:40:06;;;;;;;6.10;5.57;;;16.10;99.90;;;;;;7469309;26;20242;-75
2024/05/01 03:43:28;;;;;;;6.40;5.75;;;16.20;99.90;;;;;;7461150;26;20898;-75
2024/05/01 03:46:51;;;;;;;6.13;5.72;;;15.80;99.90;;;;;;7467144;26;20231;-76
2024/05/01 03:50:15;;;;;;;6.15;5.75;;;15.70;99.90;;;;;;7457937;26;20381;-75
2024/05/01 03:53:41;;;;;;;9.07;5.63;;;16.00;99.90;;;;;;7456794;26;20308;-77
2024/05/01 03:57:07;;;;;;;6.65;6.05;;;16.10;99.90;;;;;;7459476;26;20713;-75
2024/05/01 04:00:30;;;;;;;6.03;5.43;;;15.70;99.90;;;;;;7462740;26;20641;-76
2024/05/01 04:03:54;;;;;;;6.43;5.45;;;15.90;99.90;;;;;;7462314;26;20234;-75
2024/05/01 04:07:17;;;;;;;6.82;6.22;;;15.90;99.90;;;;;;7462186;26;20587;-78
2024/05/01 04:10:41;;;;;;;5.82;5.15;;;15.80;99.90;;;;;;7475684;26;20222;-74
2024/05/01 04:14:06;;;;;;;6.15;5.45;;;16.00;99.90;;;;;;7467649;26;20849;-76
2024/05/01 04:17:29;;;;;;;5.55;5.15;;;16.10;99.90;;;;;;7477458;26;20727;-77
2024/05/01 04:20:52;;;;;;;6.82;6.22;;;15.70;99.90;;;;;;7453486;26;20330;-76
2024/05/01 04:24:15;;;;;;;6.57;6.00;;;15.70;99.90;;;;;;7460958;26;20235;-77
2024/05/01 04:27:38;;;;;;;6.75;6.15;;;15.80;99.90;;;;;;7452457;26;20235;-76
2024/05/01 04:31:04;;;;;;;8.20;6.07;;;15.80;99.90;;;;;;7447555;26;20226;-75
2024/05/01 04:34:27;;;;;;;5.85;4.88;;;15.90;99.90;;;;;;7465795;26;20276;-76
2024/05/01 04:37:51;;;;;;;6.28;5.80;;;16.10;99.90;;;;;;7463559;26;20241;-76
2024/05/01 04:41:13;;;;;;;7.68;5.95;;;16.10;99.90;;;;;;7474162;26;20280;-75
2024/05/01 04:44:36;;;;;;;8.23;5.90;;;16.20;99.90;;;;;;7461326;26;20230;-77
2024/05/01 04:48:02;;;;;;;5.97;5.57;;;16.30;99.90;;;;;;7470776;26;20308;-76
2024/05/01 04:51:25;;;;;;;6.18;5.57;;;16.40;99.90;;;;;;7463849;26;20245;-75
2024/05/01 04:54:48;;;;;;;6.15;5.65;;;16.30;99.90;;;;;;7474622;26;20217;-77
2024/05/01 04:58:11;;;;;;;7.93;5.93;;;16.60;99.90;;;;;;7459020;26;20654;-76
2024/05/01 05:01:34;;;;;;;6.43;5.82;;;16.50;99.90;;;;;;7464429;26;20227;-74
2024/05/01 05:04:59;;;;;;;7.40;6.35;;;16.50;99.90;;;;;;7476487;26;20249;-75
2024/05/01 05:08:23;;;;;;;9.05;5.93;;;16.30;99.90;;;;;;7461886;26;20816;-77
2024/05/01 05:11:46;;;;;;;6.32;5.82;;;16.00;99.90;;;;;;7485813;26;20249;-77
2024/05/01 05:15:27;;;;;;;6.25;5.75;;;15.90;99.90;;;;;;7559381;25;20989;-77
2024/05/01 05:18:50;;;;;;;6.10;5.60;;;16.40;99.90;;;;;;7527956;26;20357;-74
2024/05/01 05:22:13;;;;;;;6.10;5.60;;;16.40;99.90;;;;;;7518909;26;20727;-76
2024/05/01 05:25:36;;;;;;;7.68;5.38;;;16.70;99.90;;;;;;7533718;26;20243;-74
2024/05/01 05:28:59;;;;;;;6.25;5.68;;;17.10;99.90;;;;;;7524568;26;20331;-75
2024/05/01 05:32:25;;;;;;;7.90;6.35;;;17.10;99.90;;;;;;7544006;26;20722;-75
2024/05/01 05:35:52;;;;;;;5.88;5.22;;;17.20;99.90;;;;;;7543701;26;20664;-76
2024/05/01 05:39:15;;;;;;;5.95;5.47;;;17.20;99.90;;;;;;7532557;26;20340;-76
2024/05/01 05:42:40;;;;;;;6.10;5.63;;;17.10;99.90;;;;;;7536468;26;20232;-75
2024/05/01 05:46:05;;;;;;;6.55;5.93;;;17.00;99.90;;;;;;7537891;26;20236;-76
2024/05/01 05:49:31;;;;;;;5.72;5.13;;;17.10;99.90;;;;;;7531766;26;20270;-78
2024/05/01 05:52:54;;;;;;;7.50;5.85;;;17.30;99.90;;;;;;7536755;26;20224;-77
2024/05/01 05:56:19;;;;;;;7.50;5.90;;;16.80;99.90;;;;;;7530960;26;20229;-78
2024/05/01 05:59:44;;;;;;;7.90;6.13;;;16.90;99.90;;;;;;7533730;26;20269;-76
2024/05/01 06:03:08;;;;;;;6.03;5.53;;;16.80;99.90;;;;;;7527344;26;20279;-76
2024/05/01 06:06:34;;;;;;;6.30;5.80;;;16.60;99.90;;;;;;7519585;26;20283;-77
2024/05/01 06:09:57;;;;;;;5.60;5.20;;;17.10;99.90;;;;;;7521629;26;20267;-78
2024/05/01 06:13:20;;;;;;;7.53;5.82;;;17.40;99.90;;;;;;7537079;26;20236;-77
2024/05/01 06:16:43;;;;;;;5.55;5.15;;;17.40;99.90;;;;;;7522264;26;20659;-77
2024/05/01 06:20:07;;;;;;;5.43;4.82;;;17.50;99.90;;;;;;7529656;26;20228;-77
2024/05/01 06:23:33;;;;;;;6.35;5.50;;;17.70;99.90;;;;;;7536040;26;20232;-75
2024/05/01 06:26:55;;;;;;;5.70;4.95;;;17.30;99.90;;;;;;7505632;26;20283;-75
2024/05/01 06:30:18;;;;;;;5.32;5.03;;;16.90;99.90;;;;;;7516779;26;20757;-77
2024/05/01 06:33:44;;;;;;;6.15;5.53;;;16.80;99.90;;;;;;7508689;26;20233;-75
2024/05/01 06:37:07;;;;;;;6.82;5.43;;;17.20;99.90;;;;;;7516255;26;20271;-77
2024/05/01 06:40:32;;;;;;;6.00;5.43;;;17.30;99.90;;;;;;7516416;26;20328;-77
2024/05/01 06:43:55;;;;;;;5.70;5.20;;;17.60;99.90;;;;;;7514299;26;20228;-76
2024/05/01 06:47:18;;;;;;;5.72;5.18;;;17.60;99.90;;;;;;7507054;26;20337;-77
2024/05/01 06:50:41;;;;;;;5.88;5.38;;;17.80;99.90;;;;;;7502491;26;20610;-76
2024/05/01 06:54:04;;;;;;;5.45;5.00;;;18.20;99.90;;;;;;7519936;26;20240;-77
2024/05/01 06:57:30;;;;;;;5.85;4.88;;;18.30;99.90;;;;;;7518389;26;20228;-78
2024/05/01 07:00:53;;;;;;;8.55;5.40;;;17.60;99.90;;;;;;7508010;26;20232;-77
2024/05/01 07:04:16;;;;;;;5.00;4.70;;;18.00;99.90;;;;;;7519829;26;20232;-76
2024/05/01 07:07:38;;;;;;;8.80;5.18;;;18.30;99.90;;;;;;7512778;26;20280;-78
2024/05/01 07:11:01;;;;;;;5.30;4.97;;;18.40;99.90;;;;;;7519454;26;20228;-78
2024/05/01 07:14:27;;;;;;;5.95;5.45;;;17.90;99.90;;;;;;7515975;26;20236;-78
2024/05/01 07:17:50;;;;;;;9.80;4.90;;;18.20;99.90;;;;;;7499456;26;20278;-77
2024/05/01 07:21:13;;;;;;;5.75;4.60;;;18.30;99.90;;;;;;7520081;26;20240;-74
2024/05/01 07:24:36;;;;;;;5.47;4.95;;;18.60;99.90;;;;;;7518251;26;20305;-77
2024/05/01 07:27:59;;;;;;;6.40;4.93;;;18.60;99.90;;;;;;7506130;26;20232;-77
2024/05/01 07:31:24;;;;;;;5.63;4.57;;;18.70;99.90;;;;;;7517445;26;20237;-79
2024/05/01 07:34:47;;;;;;;4.53;4.10;;;19.20;99.90;;;;;;7499014;26;20241;-78
2024/05/01 07:38:11;;;;;;;4.95;3.80;;;18.70;99.90;;;;;;7514921;26;21385;-79
2024/05/01 07:41:34;;;;;;;6.80;5.20;;;19.30;99.90;;;;;;7509223;26;20684;-77
2024/05/01 07:44:57;;;;;;;4.70;3.70;;;19.90;99.90;;;;;;7488362;26;20752;-78
2024/05/01 07:48:23;;;;;;;5.40;3.45;;;19.90;99.90;;;;;;7517420;26;20232;-78
2024/05/01 07:51:46;;;;;;;4.60;4.20;;;20.40;99.90;;;;;;7519643;26;20624;-78
2024/05/01 07:55:10;;;;;;;5.45;3.55;;;20.50;99.90;;;;;;7505279;26;20240;-77
2024/05/01 07:58:33;;;;;;;9.73;4.20;;;19.80;99.90;;;;;;7520082;26;20270;-80
2024/05/01 08:01:56;;;;;;;4.05;3.63;;;20.30;99.80;;;;;;7507459;26;20229;-79
2024/05/01 08:05:22;;;;;;;7.55;3.40;;;20.40;99.40;;;;;;7518408;26;20228;-78
2024/05/01 08:08:45;;;;;;;8.63;3.75;;;21.10;98.30;;;;;;7514206;26;20228;-79
2024/05/01 08:12:08;;;;;;;3.85;3.33;;;22.30;96.60;;;;;;7498650;26;20279;-80
2024/05/01 08:15:31;;;;;;;4.80;3.40;;;24.30;92.20;;;;;;7504083;26;20279;-83
2024/05/01 08:18:54;;;;;;;3.75;2.75;;;25.00;86.60;;;;;;7515103;26;20260;-81
2024/05/01 08:22:21;;;;;;;5.53;3.70;;;24.50;86.30;;;;;;7493811;26;20767;-81
2024/05/01 08:25:50;;;;;;;3.83;3.53;;;24.00;85.30;;;;;;7512170;26;20618;-82
2024/05/01 08:29:13;;;;;;;3.13;2.92;;;24.40;83.50;;;;;;7496181;26;20234;-80
2024/05/01 08:32:36;;;;;;;5.85;3.13;;;26.00;79.20;;;;;;7515960;26;20228;-81
2024/05/01 08:35:59;;;;;;;3.50;3.28;;;25.50;78.50;;;;;;7496996;26;20541;-80
2024/05/01 08:39:24;;;;;;;4.88;3.08;;;24.80;80.50;;;;;;7497302;26;20739;-82
2024/05/01 08:42:48;;;;;;;7.03;2.83;;;24.90;81.80;;;;;;7499492;26;20276;-81
2024/05/01 08:46:11;;;;;;;6.75;3.63;;;26.20;78.30;;;;;;7512175;26;20272;-81
2024/05/01 08:49:34;;;;;;;4.50;3.28;;;27.70;73.40;;;;;;7509298;26;20236;-81
2024/05/01 08:53:00;;;;;;;6.75;2.88;;;27.60;71.80;;;;;;7517567;26;20295;-82
2024/05/01 08:56:26;;;;;;;3.50;2.40;;;28.30;68.70;;;;;;7514232;26;20233;-81
2024/05/01 08:59:50;;;;;;;3.58;2.42;;;27.60;68.40;;;;;;7501533;26;20233;-84
2024/05/01 09:03:14;;;;;;;2.70;2.30;;;25.80;69.90;;;;;;7492918;26;20318;-82
2024/05/01 09:06:37;;;;;;;5.22;3.00;;;25.30;72.80;;;;;;7508920;26;20232;-82
2024/05/01 09:10:00;;;;;;;4.85;3.25;;;26.80;68.60;;;;;;7500811;26;20240;-84
2024/05/01 09:13:25;;;;;;;5.18;3.38;;;26.10;70.20;;;;;;7502416;26;20237;-84
2024/05/01 09:16:48;;;;;;;3.40;3.10;;;26.20;69.20;;;;;;7499919;26;20840;-83
2024/05/01 09:20:19;;;;;;;3.30;3.00;;;26.10;70.80;;;;;;7500153;26;20345;-83
2024/05/01 09:23:43;;;;;;;6.80;3.28;;;28.50;66.00;;;;;;7503273;26;20333;-83
2024/05/01 09:27:07;;;;;;;4.18;3.00;;;27.30;66.00;;;;;;7517309;26;20271;-84
2024/05/01 09:30:33;;;;;;;4.00;3.17;;;26.60;67.80;;;;;;7524617;26;20228;-84
2024/05/01 09:33:56;;;;;;;2.92;2.72;;;26.50;67.70;;;;;;7510691;26;20236;-83
2024/05/01 09:37:21;;;;;;;3.03;2.72;;;27.20;66.70;;;;;;7511978;26;20230;-83
2024/05/01 09:40:49;;;;;;;7.53;2.95;;;26.40;68.30;;;;;;7516014;26;20228;-83
2024/05/01 09:44:19;;;;;;;3.45;2.50;;;26.90;68.40;;;;;;7510878;26;20271;-82
2024/05/01 09:47:46;;;;;;;6.05;2.85;;;27.30;66.30;;;;;;7497067;26;20233;-85
2024/05/01 09:51:10;;;;;;;4.38;2.85;;;27.70;66.30;;;;;;7517535;26;20301;-84
2024/05/01 09:54:34;;;;;;;4.22;3.60;;;27.20;66.50;;;;;;7503617;26;20224;-85
2024/05/01 09:57:58;;;;;;;3.30;2.40;;;27.80;65.20;;;;;;7495049;26;20229;-83
2024/05/01 10:01:24;;;;;;;3.45;2.70;;;26.70;66.00;;;;;;7515278;26;20699;-83
2024/05/01 10:04:54;;;;;;;3.65;3.20;;;26.60;67.00;;;;;;7503213;26;20286;-84
2024/05/01 10:08:18;;;;;;;3.00;2.80;;;28.20;64.90;;;;;;7506185;26;20715;-83
2024/05/01 10:11:51;;;;;;;5.32;2.67;;;27.10;66.20;;;;;;7515029;26;20225;-82
2024/05/01 10:15:27;;;;;;;8.82;3.17;;;26.70;66.50;;;;;;7521168;26;20328;-85
2024/05/01 10:18:51;;;;;;;4.53;2.97;;;27.70;66.10;;;;;;7507846;26;20573;-84
2024/05/01 10:22:16;;;;;;;2.65;2.45;;;29.00;63.50;;;;;;7519321;26;20332;-84
2024/05/01 10:25:49;;;;;;;5.45;2.72;;;27.30;64.90;;;;;;7506878;26;20233;-84
2024/05/01 10:29:11;;;;;;;4.57;2.83;;;26.70;66.00;;;;;;7510226;26;20266;-84
2024/05/01 10:32:34;;;;;;;2.70;2.50;;;25.80;67.60;;;;;;7508750;26;20299;-85
2024/05/01 10:35:58;;;;;;;3.35;3.08;;;25.70;68.80;;;;;;7512721;26;20236;-84
2024/05/01 10:39:25;;;;;;;4.10;2.80;;;24.70;69.60;;;;;;7505997;26;20233;-82
2024/05/01 10:42:48;;;;;;;6.40;3.75;;;25.50;70.00;;;;;;7513464;26;20244;-85
2024/05/01 10:46:11;;;;;;;3.88;3.50;;;26.70;68.50;;;;;;7517946;26;20726;-83
2024/05/01 10:49:35;;;;;;;3.42;2.92;;;25.60;69.70;;;;;;7511652;26;20238;-83
2024/05/01 10:52:58;;;;;;;20.08;4.18;;;25.50;70.70;;;;;;7518989;26;20233;-83
2024/05/01 10:56:24;;;;;;;3.72;2.70;;;26.00;69.30;;;;;;7505401;26;20232;-82
2024/05/01 10:59:57;;;;;;;3.95;3.60;;;23.90;71.90;;;;;;7515250;26;20236;-84
2024/05/01 11:03:21;;;;;;;5.97;4.05;;;23.30;74.90;;;;;;7505636;26;20233;-81
2024/05/01 11:06:44;;;;;;;4.72;4.10;;;24.10;73.90;;;;;;7507836;26;20234;-83
2024/05/01 11:10:11;;;;;;;2.75;2.63;;;24.30;73.60;;;;;;7512938;26;20277;-81
2024/05/01 11:13:39;;;;;;;5.60;4.53;;;24.30;73.00;;;;;;7503000;26;20229;-81
2024/05/01 11:17:03;;;;;;;5.63;3.85;;;24.10;73.90;;;;;;7505119;26;20235;-84
2024/05/01 11:20:27;;;;;;;4.70;3.10;;;24.30;74.10;;;;;;7511893;26;20728;-82
2024/05/01 11:23:59;;;;;;;3.42;3.13;;;24.70;72.90;;;;;;7506485;26;20967;-82
2024/05/01 11:27:24;;;;;;;4.15;3.53;;;24.90;72.50;;;;;;7495867;26;20267;-83
2024/05/01 11:30:50;;;;;;;3.78;3.38;;;24.70;73.50;;;;;;7510663;26;20232;-84
2024/05/01 11:34:15;;;;;;;4.40;3.28;;;25.40;71.60;;;;;;7507591;26;20232;-81
2024/05/01 11:37:38;;;;;;;6.03;3.55;;;25.40;72.30;;;;;;7490399;26;20279;-84
2024/05/01 11:41:01;;;;;;;5.25;3.38;;;24.50;74.30;;;;;;7497700;26;20572;-84
2024/05/01 11:44:24;;;;;;;4.38;3.88;;;24.80;73.70;;;;;;7500742;26;20236;-81
2024/05/01 11:47:50;;;;;;;3.25;2.90;;;24.50;74.20;;;;;;7502055;26;20228;-81
2024/05/01 11:51:13;;;;;;;4.22;3.67;;;24.30;74.70;;;;;;7512448;26;20336;-82
2024/05/01 11:54:36;;;;;;;8.00;3.35;;;24.30;75.00;;;;;;7506902;26;20228;-82
2024/05/01 11:58:07;;;;;;;5.28;3.58;;;23.90;75.30;;;;;;7510987;26;20229;-84
2024/05/01 12:01:30;;;;;;;3.72;3.33;;;23.70;76.20;;;;;;7512351;26;20359;-83
2024/05/01 12:04:57;;;;;;;3.50;3.20;;;24.20;75.60;;;;;;7507322;26;20278;-82
2024/05/01 12:08:23;;;;;;;5.15;3.33;;;24.00;75.80;;;;;;7514841;26;20390;-82
2024/05/01 12:11:46;;;;;;;5.45;3.80;;;23.90;76.30;;;;;;7515440;26;20349;-80
2024/05/01 12:15:10;;;;;;;3.88;3.30;;;23.40;77.30;;;;;;7509410;26;20320;-82
2024/05/01 12:18:33;;;;;;;4.43;3.35;;;23.60;77.70;;;;;;7513642;26;20678;-83
2024/05/01 12:21:59;;;;;;;4.78;3.95;;;23.90;76.90;;;;;;7504413;26;20866;-84
2024/05/01 12:25:23;;;;;;;3.65;3.05;;;23.90;76.90;;;;;;7509910;26;20339;-81
2024/05/01 12:28:46;;;;;;;4.65;3.38;;;23.40;77.80;;;;;;7505246;26;20270;-80
2024/05/01 12:32:43;;;;;;;3.65;3.30;;;23.60;78.20;;;;;;7514875;26;20330;-81
2024/05/01 12:36:14;;;;;;;6.10;3.65;;;23.90;78.10;;;;;;7502159;26;20878;-82
2024/05/01 12:39:40;;;;;;;4.72;3.58;;;23.50;78.60;;;;;;7492805;26;20944;-81
2024/05/01 12:43:03;;;;;;;6.53;4.00;;;23.80;78.60;;;;;;7501206;26;20855;-82
2024/05/01 12:46:27;;;;;;;6.03;3.53;;;23.90;78.00;;;;;;7506797;26;20338;-80
2024/05/01 12:49:51;;;;;;;12.13;11.02;;;23.60;79.20;;;;;;7503029;26;20241;-81
2024/05/01 12:53:13;;;;;;;5.28;3.88;;;23.50;79.40;;;;;;7517447;26;20257;-82
2024/05/01 12:56:46;;;;;;;5.70;3.65;;;23.30;80.30;;;;;;7506618;26;20233;-80
2024/05/01 13:00:18;;;;;;;6.35;4.63;;;23.30;80.40;;;;;;7507899;26;20280;-81
2024/05/01 13:03:42;;;;;;;5.05;3.50;;;23.70;79.40;;;;;;7500129;26;20266;-79
2024/05/01 13:07:32;;;;;;;3.70;3.40;;;24.30;78.30;;;;;;7500773;26;20237;-81
2024/05/01 13:11:24;;;;;;;3.53;3.22;;;24.70;76.90;;;;;;7507056;26;20224;-82
2024/05/01 13:14:50;;;;;;;6.80;4.15;;;24.10;78.50;;;;;;7507131;26;20712;-80
2024/05/01 13:18:24;;;;;;;3.92;3.60;;;24.40;78.20;;;;;;7506133;26;20273;-80
2024/05/01 13:21:47;;;;;;;9.10;4.35;;;24.30;78.70;;;;;;7508867;26;20272;-81
2024/05/01 13:25:36;;;;;;;6.60;3.58;;;24.40;77.70;;;;;;7512273;26;20387;-81
2024/05/01 13:28:59;;;;;;;8.43;3.85;;;23.90;78.50;;;;;;7500809;26;20228;-82
2024/05/01 13:32:34;;;;;;;4.20;3.90;;;23.70;79.10;;;;;;7512045;26;20244;-83
2024/05/01 13:35:57;;;;;;;3.80;3.20;;;24.00;78.90;;;;;;7501945;26;20267;-82
2024/05/01 13:39:37;;;;;;;6.00;4.85;;;23.80;79.10;;;;;;7503407;26;20612;-81
2024/05/01 13:43:05;;;;;;;5.30;3.10;;;24.30;78.60;;;;;;7517043;26;20288;-83
2024/05/01 13:46:33;;;;;;;8.13;3.97;;;24.10;79.10;;;;;;7516097;26;20601;-81
2024/05/01 13:50:03;;;;;;;4.68;4.07;;;24.20;78.70;;;;;;7515273;26;20560;-82
2024/05/01 13:53:26;;;;;;;7.03;4.60;;;23.50;79.40;;;;;;7511612;26;20295;-81
2024/05/01 13:56:49;;;;;;;9.98;3.78;;;23.60;79.60;;;;;;7506822;26;20272;-81
2024/05/01 14:00:12;;;;;;;7.28;3.38;;;24.00;79.10;;;;;;7509014;26;20279;-82
2024/05/01 14:03:34;;;;;;;3.83;3.45;;;24.20;77.70;;;;;;7508798;26;20312;-80
2024/05/01 14:07:04;;;;;;;7.45;6.82;;;24.00;78.60;;;;;;7519764;26;20234;-81
2024/05/01 14:10:31;;;;;;;7.55;3.95;;;23.50;80.00;;;;;;7510957;26;20251;-82
2024/05/01 14:13:55;;;;;;;5.35;3.88;;;23.00;81.00;;;;;;7500787;26;20232;-83
2024/05/01 14:17:45;;;;;;;6.90;6.30;;;23.00;81.70;;;;;;7496639;26;20559;-82
2024/05/01 14:21:12;;;;;;;5.13;4.28;;;22.90;82.00;;;;;;7514319;26;20232;-82
2024/05/01 14:24:37;;;;;;;5.82;3.70;;;22.90;82.30;;;;;;7514849;26;20320;-82
2024/05/01 14:28:01;;;;;;;7.45;4.53;;;23.10;82.40;;;;;;7514520;26;20241;-82
2024/05/01 14:31:25;;;;;;;6.82;4.15;;;22.90;83.20;;;;;;7507962;26;20341;-82
2024/05/01 14:34:59;;;;;;;5.03;3.88;;;22.90;83.50;;;;;;7511309;26;20723;-81
2024/05/01 14:38:58;;;;;;;6.05;4.60;;;23.00;83.60;;;;;;7512327;26;20276;-79
2024/05/01 14:42:24;;;;;;;7.68;4.30;;;23.60;82.10;;;;;;7514997;26;20296;-81
2024/05/01 14:46:19;;;;;;;6.78;3.90;;;23.90;81.90;;;;;;7517318;26;20300;-82
2024/05/01 14:49:44;;;;;;;5.57;3.78;;;23.50;82.60;;;;;;7506762;26;20699;-81
2024/05/01 14:53:28;;;;;;;6.47;4.18;;;23.50;83.30;;;;;;7522427;26;20578;-82
2024/05/01 14:56:58;;;;;;;5.50;3.97;;;23.70;82.50;;;;;;7505826;26;20276;-80
2024/05/01 15:00:28;;;;;;;7.40;3.80;;;23.40;83.90;;;;;;7513948;26;20332;-81
2024/05/01 15:03:51;;;;;;;4.20;3.80;;;23.30;84.40;;;;;;7511338;26;20323;-82
2024/05/01 15:07:22;;;;;;;7.32;4.60;;;23.50;84.40;;;;;;7511681;26;20571;-82
2024/05/01 15:10:44;;;;;;;6.28;4.20;;;23.70;84.00;;;;;;7502280;26;20278;-80
2024/05/01 15:14:11;;;;;;;4.95;3.97;;;23.90;83.90;;;;;;7513130;26;20290;-80
2024/05/01 15:17:36;;;;;;;7.72;4.47;;;23.70;85.10;;;;;;7510294;26;20823;-80
2024/05/01 15:20:59;;;;;;;4.90;3.72;;;24.20;83.30;;;;;;7496131;26;20680;-81
2024/05/01 15:24:23;;;;;;;4.65;4.10;;;24.50;82.20;;;;;;7512319;26;20323;-80
2024/05/01 15:27:45;;;;;;;4.22;3.88;;;24.10;83.00;;;;;;7505786;26;20348;-81
2024/05/01 15:31:08;;;;;;;5.40;3.95;;;23.20;85.80;;;;;;7504283;26;20306;-80
2024/05/01 15:34:34;;;;;;;4.82;4.30;;;22.90;86.60;;;;;;7522001;26;20560;-80
2024/05/01 15:37:57;;;;;;;4.40;4.00;;;22.70;87.50;;;;;;7496455;26;20242;-81
2024/05/01 15:41:23;;;;;;;8.68;3.30;;;22.80;87.50;;;;;;7514563;26;20396;-81
2024/05/01 15:44:46;;;;;;;37.55;34.75;;;22.90;86.60;;;;;;7499359;26;20275;-81
2024/05/01 15:48:27;;;;;;;5.72;4.22;;;23.00;86.90;;;;;;7495308;26;20276;-80
2024/05/01 15:51:54;;;;;;;16.63;4.57;;;23.60;85.20;;;;;;7517061;26;20231;-81
2024/05/01 15:55:18;;;;;;;6.13;3.92;;;23.50;86.00;;;;;;7513043;26;20300;-81
2024/05/01 15:58:41;;;;;;;7.35;3.78;;;23.40;85.40;;;;;;7489661;26;20233;-81
2024/05/01 16:02:05;;;;;;;7.80;3.80;;;23.30;85.00;;;;;;7506896;26;20228;-80
2024/05/01 16:05:30;;;;;;;7.10;3.90;;;22.90;86.20;;;;;;7510964;26;20269;-79
2024/05/01 16:08:56;;;;;;;9.48;3.83;;;23.00;86.10;;;;;;7506853;26;20247;-81
2024/05/01 16:12:30;;;;;;;8.52;3.83;;;22.90;86.30;;;;;;7508613;26;20408;-83
2024/05/01 16:15:55;;;;;;;5.07;4.30;;;23.40;84.30;;;;;;7508255;26;20267;-81
2024/05/01 16:19:27;;;;;;;6.18;4.03;;;23.20;85.20;;;;;;7519398;26;20774;-82
2024/05/01 16:22:57;;;;;;;6.05;3.55;;;23.00;85.80;;;;;;7520326;26;20271;-81
2024/05/01 16:26:25;;;;;;;7.22;4.30;;;23.10;85.90;;;;;;7509970;26;20232;-81
2024/05/01 16:29:48;;;;;;;8.40;4.22;;;22.90;86.50;;;;;;7511467;26;20555;-79
2024/05/01 16:33:11;;;;;;;7.82;4.03;;;22.80;86.80;;;;;;7511866;26;20228;-78
2024/05/01 16:36:37;;;;;;;13.20;4.22;;;22.50;87.60;;;;;;7506890;26;20367;-79
2024/05/01 16:40:00;;;;;;;9.25;6.28;;;22.30;88.50;;;;;;7505294;26;20334;-80
2024/05/01 16:43:44;;;;;;;6.18;4.35;;;22.40;88.40;;;;;;7505766;26;20244;-80
2024/05/01 16:47:07;;;;;;;4.55;3.40;;;22.50;88.60;;;;;;7498491;26;20228;-81
2024/05/01 16:50:30;;;;;;;5.85;4.97;;;22.40;88.80;;;;;;7516991;26;20684;-79
2024/05/01 16:53:53;;;;;;;4.47;4.05;;;22.40;88.90;;;;;;7510581;26;20363;-79
2024/05/01 16:57:23;;;;;;;5.63;5.10;;;22.20;89.30;;;;;;7508677;26;20236;-80
2024/05/01 17:00:52;;;;;;;3.88;3.58;;;22.30;89.10;;;;;;7509988;26;20237;-79
2024/05/01 17:04:16;;;;;;;6.47;3.92;;;22.50;88.10;;;;;;7511733;26;20228;-79
2024/05/01 17:07:40;;;;;;;9.13;4.28;;;22.40;88.80;;;;;;7519845;26;20271;-79
2024/05/01 17:11:03;;;;;;;8.15;4.43;;;22.20;89.20;;;;;;7501800;26;20226;-80
2024/05/01 17:14:26;;;;;;;12.55;11.38;;;22.20;89.50;;;;;;7515652;26;20316;-79
2024/05/01 17:17:51;;;;;;;5.80;4.63;;;22.30;89.60;;;;;;7496189;26;20668;-82
2024/05/01 17:21:17;;;;;;;29.33;26.42;;;22.30;89.60;;;;;;7511487;26;20331;-82
2024/05/01 17:24:41;;;;;;;8.82;5.72;;;22.20;90.00;;;;;;7508885;26;20336;-80
2024/05/01 17:28:04;;;;;;;10.27;4.35;;;21.90;90.70;;;;;;7519137;26;20228;-80
2024/05/01 17:31:28;;;;;;;7.63;5.07;;;22.00;90.80;;;;;;7524108;26;20274;-80
2024/05/01 17:34:54;;;;;;;12.85;5.97;;;22.10;90.60;;;;;;7519053;26;20702;-81
2024/05/01 17:38:18;;;;;;;9.07;4.97;;;22.20;91.00;;;;;;7517925;26;20259;-81
2024/05/01 17:41:41;;;;;;;7.88;4.90;;;22.00;91.20;;;;;;7506462;26;20318;-80
2024/05/01 17:45:07;;;;;;;12.85;4.70;;;22.20;91.20;;;;;;7506269;26;20229;-81
2024/05/01 17:48:36;;;;;;;9.60;4.32;;;22.30;91.20;;;;;;7508757;26;20280;-81